Time;durP1;ratioP1;P1;durP2;ratioP2;P2;SDS_P1;SDS_P2;PMS_P1;PMS_P2;Temp;Humidity;BMP_temperature;BMP_pressure;BME280_temperature;BME280_humidity;BME280_pressure;Samples;Min_cycle;Max_cycle;Signal;HPM_P1;HPM_P2
2022/01/20 09:05:47;;;;;;;44.05;25.77;;;;;;;;;;6337608;22;20342;-86
2022/01/20 09:08:13;;;;;;;44.58;25.90;;;;;;;;;;6372266;22;20010;-86
2022/01/20 09:10:42;;;;;;;41.42;24.95;;;;;;;;;;6372151;22;20069;-84
2022/01/20 10:09:52;;;;;;;30.50;20.80;;;;;;;;;;6342877;22;20011;-81
2022/01/20 10:12:19;;;;;;;30.42;20.48;;;;;;;;;;6371472;22;20010;-83
2022/01/20 10:14:50;;;;;;;32.72;22.05;;;;;;;;;;6369875;22;20007;-82
2022/01/20 10:17:21;;;;;;;31.52;21.60;;;;;;;;;;6371160;22;20002;-79
2022/01/20 10:19:51;;;;;;;29.25;21.50;;;;;;;;;;6371560;22;20332;-80
2022/01/20 10:22:17;;;;;;;;;;;;;;;;;;6371917;22;20006;-80
2022/01/20 10:25:01;;;;;;;29.67;21.02;;;;;;;;;;6370551;22;19990;-82
2022/01/20 10:27:27;;;;;;;30.00;20.77;;;;;;;;;;6370857;22;20024;-81
2022/01/20 10:30:08;;;;;;;27.30;20.38;;;;;;;;;;6371325;22;20006;-80
2022/01/20 10:32:44;;;;;;;30.27;22.20;;;;;;;;;;6371075;22;20006;-79
2022/01/20 10:35:11;;;;;;;25.30;20.95;;;;;;;;;;6369331;22;20089;-79
2022/01/20 10:37:39;;;;;;;28.00;20.70;;;;;;;;;;6370198;22;20097;-79
2022/01/20 10:40:15;;;;;;;23.73;19.70;;;;;;;;;;6371187;22;20005;-81
2022/01/20 10:42:43;;;;;;;23.50;19.52;;;;;;;;;;6369402;22;20006;-80
2022/01/20 10:45:22;;;;;;;25.95;19.02;;;;;;;;;;6370334;22;20010;-81
2022/01/20 10:47:57;;;;;;;22.73;18.40;;;;;;;;;;6370833;22;20022;-81
2022/01/20 10:50:29;;;;;;;22.23;18.48;;;;;;;;;;6370906;22;19998;-82
2022/01/20 10:52:55;;;;;;;20.70;18.48;;;;;;;;;;6370638;22;20391;-80
2022/01/20 10:55:23;;;;;;;21.95;18.80;;;;;;;;;;6370442;22;20018;-81
2022/01/20 10:57:50;;;;;;;22.75;19.52;;;;;;;;;;6369085;22;20003;-82
2022/01/20 11:00:19;;;;;;;24.15;19.02;;;;;;;;;;6370828;22;20439;-82
2022/01/20 11:02:55;;;;;;;;;;;;;;;;;;6371116;22;19999;-82
2022/01/20 11:05:21;;;;;;;19.30;16.63;;;;;;;;;;6370510;22;19936;-81
2022/01/20 11:07:48;;;;;;;20.20;17.05;;;;;;;;;;6370464;22;19998;-81
2022/01/20 11:10:15;;;;;;;19.88;16.75;;;;;;;;;;6370563;22;20437;-81
2022/01/20 11:12:41;;;;;;;17.83;15.50;;;;;;;;;;6369089;22;20329;-82
2022/01/20 11:15:10;;;;;;;18.77;16.80;;;;;;;;;;6370883;22;20074;-81
2022/01/20 11:17:40;;;;;;;19.95;16.63;;;;;;;;;;6368915;22;20006;-81
2022/01/20 11:20:12;;;;;;;20.08;16.45;;;;;;;;;;6370435;22;20073;-81
2022/01/20 11:23:09;;;;;;;19.33;16.10;;;;;;;;;;6370485;22;20073;-81
2022/01/20 11:25:39;;;;;;;20.38;16.15;;;;;;;;;;6369964;22;20383;-82
2022/01/20 11:28:09;;;;;;;19.92;15.88;;;;;;;;;;6370835;22;19998;-81
2022/01/20 11:30:41;;;;;;;21.98;16.80;;;;;;;;;;6370895;22;20002;-83
2022/01/20 11:33:10;;;;;;;21.92;16.88;;;;;;;;;;6371383;22;20026;-82
2022/01/20 11:35:49;;;;;;;23.73;18.85;;;;;;;;;;6371089;22;20417;-82
2022/01/20 11:38:17;;;;;;;24.23;17.85;;;;;;;;;;6370780;22;19999;-82
2022/01/20 11:40:52;;;;;;;25.38;17.27;;;;;;;;;;6371199;22;19998;-82
2022/01/20 11:43:18;;;;;;;22.08;16.83;;;;;;;;;;6370842;22;19999;-82
2022/01/20 11:45:50;;;;;;;21.35;16.33;;;;;;;;;;6370227;22;20003;-81
2022/01/20 11:48:23;;;;;;;22.30;15.95;;;;;;;;;;6370554;22;20002;-80
2022/01/20 11:51:04;;;;;;;22.08;15.55;;;;;;;;;;6370764;22;19999;-81
2022/01/20 11:53:29;;;;;;;23.95;17.75;;;;;;;;;;6370961;22;20003;-81
2022/01/20 11:55:55;;;;;;;25.00;19.02;;;;;;;;;;6368923;22;19999;-79
2022/01/20 11:58:23;;;;;;;25.73;19.48;;;;;;;;;;6370712;22;20033;-80
2022/01/20 12:01:05;;;;;;;28.80;20.65;;;;;;;;;;6370976;22;20022;-79
2022/01/20 12:03:33;;;;;;;27.73;20.48;;;;;;;;;;6370848;22;20006;-79
2022/01/20 12:06:13;;;;;;;30.83;21.38;;;;;;;;;;6370507;22;20048;-79
2022/01/20 12:08:55;;;;;;;30.70;21.10;;;;;;;;;;6370447;22;20452;-80
2022/01/20 12:11:20;;;;;;;31.48;21.02;;;;;;;;;;6370742;22;20055;-79
2022/01/20 12:13:48;;;;;;;30.92;20.50;;;;;;;;;;6370801;22;20003;-79
2022/01/20 12:16:19;;;;;;;28.50;20.02;;;;;;;;;;6370698;22;20006;-80
2022/01/20 12:18:55;;;;;;;32.80;21.23;;;;;;;;;;6371093;22;20002;-81
2022/01/20 12:21:21;;;;;;;28.58;20.60;;;;;;;;;;6370925;22;20003;-80
2022/01/20 12:23:49;;;;;;;27.90;19.63;;;;;;;;;;6370937;22;20294;-80
2022/01/20 12:26:15;;;;;;;25.70;19.67;;;;;;;;;;6370508;22;20021;-80
2022/01/20 12:28:40;;;;;;;29.63;19.90;;;;;;;;;;6371252;22;20003;-80
2022/01/20 12:31:08;;;;;;;28.85;19.52;;;;;;;;;;6372768;22;20003;-80
2022/01/20 12:33:37;;;;;;;28.98;20.45;;;;;;;;;;6372358;22;20009;-81
2022/01/20 12:36:04;;;;;;;30.65;20.67;;;;;;;;;;6372494;22;20002;-81
2022/01/20 12:38:33;;;;;;;31.83;22.02;;;;;;;;;;6372493;22;20047;-81
2022/01/20 12:41:08;;;;;;;30.80;21.83;;;;;;;;;;6372973;22;20432;-81
2022/01/20 12:43:37;;;;;;;31.98;22.05;;;;;;;;;;6372465;22;20044;-81
2022/01/20 12:46:03;;;;;;;30.48;20.35;;;;;;;;;;6371999;22;20012;-81
2022/01/20 17:17:03;;;;;;;32.42;19.83;;;;;;;;;;6382730;22;20032;-85
2022/01/20 17:19:29;;;;;;;32.83;20.15;;;;;;;;;;6372316;22;20081;-85
2022/01/20 17:21:54;;;;;;;35.53;19.25;;;;;;;;;;6372150;22;19998;-85
2022/01/20 17:24:19;;;;;;;37.13;19.40;;;;;;;;;;6372029;22;20090;-83
2022/01/20 17:26:45;;;;;;;35.90;20.02;;;;;;;;;;6370348;22;20007;-82
2022/01/20 17:29:10;;;;;;;33.42;19.60;;;;;;;;;;6372407;22;20025;-82
2022/01/20 17:31:36;;;;;;;33.70;18.25;;;;;;;;;;6372393;22;20435;-83
2022/01/20 17:34:02;;;;;;;32.85;19.08;;;;;;;;;;6371743;22;20009;-83
2022/01/20 17:36:27;;;;;;;31.98;18.75;;;;;;;;;;6372014;22;20069;-82
2022/01/20 17:38:53;;;;;;;29.40;17.58;;;;;;;;;;6371724;22;20036;-84
2022/01/20 17:41:18;;;;;;;34.63;18.55;;;;;;;;;;6371862;22;20047;-82
2022/01/20 17:43:44;;;;;;;35.08;18.67;;;;;;;;;;6371754;22;20055;-82
2022/01/20 17:46:09;;;;;;;35.70;18.00;;;;;;;;;;6372160;22;20009;-82
2022/01/20 17:48:35;;;;;;;33.38;17.85;;;;;;;;;;6371746;22;20002;-88
2022/01/20 17:51:00;;;;;;;33.47;19.13;;;;;;;;;;6372087;22;19998;-88
2022/01/20 17:53:26;;;;;;;33.75;18.02;;;;;;;;;;6371696;22;20017;-88
2022/01/20 17:55:52;;;;;;;34.00;19.77;;;;;;;;;;6372039;22;20002;-85
2022/01/20 17:58:18;;;;;;;37.47;21.60;;;;;;;;;;6372436;22;20001;-89
2022/01/20 18:00:44;;;;;;;34.15;20.08;;;;;;;;;;6371529;22;20002;-88
2022/01/20 18:03:11;;;;;;;33.40;19.63;;;;;;;;;;6371633;22;20332;-87
2022/01/20 18:05:37;;;;;;;37.33;19.92;;;;;;;;;;6371658;22;19999;-85
2022/01/20 18:08:03;;;;;;;45.22;25.70;;;;;;;;;;6371540;22;20010;-87
2022/01/20 18:10:28;;;;;;;61.38;34.60;;;;;;;;;;6371458;22;20025;-87
2022/01/20 18:12:55;;;;;;;41.20;22.92;;;;;;;;;;6371739;22;20006;-87
2022/01/20 18:15:21;;;;;;;38.50;23.67;;;;;;;;;;6371344;22;20427;-85
2022/01/20 18:17:47;;;;;;;44.22;25.20;;;;;;;;;;6371336;22;20077;-85
2022/01/20 18:20:14;;;;;;;39.92;22.65;;;;;;;;;;6373273;22;20167;-88
2022/01/20 18:22:39;;;;;;;34.53;21.60;;;;;;;;;;6371452;22;19998;-89
2022/01/20 18:25:06;;;;;;;33.13;19.65;;;;;;;;;;6371194;22;20398;-87
2022/01/20 18:27:31;;;;;;;34.58;19.38;;;;;;;;;;6371150;22;20425;-88
2022/01/20 18:29:57;;;;;;;37.03;23.08;;;;;;;;;;6370708;22;20030;-89
2022/01/20 18:32:26;;;;;;;37.63;21.40;;;;;;;;;;6369747;22;20006;-86
2022/01/20 18:34:52;;;;;;;40.45;25.02;;;;;;;;;;6371224;22;20431;-88
2022/01/20 18:37:17;;;;;;;41.47;23.80;;;;;;;;;;6371026;22;20002;-89
2022/01/20 18:39:43;;;;;;;38.47;22.92;;;;;;;;;;6371214;22;20414;-87
2022/01/20 18:42:08;;;;;;;37.15;21.33;;;;;;;;;;6370804;22;20058;-88
2022/01/20 18:44:34;;;;;;;36.60;22.17;;;;;;;;;;6371103;22;20005;-86
2022/01/20 18:46:59;;;;;;;44.92;25.38;;;;;;;;;;6371120;22;20006;-86
2022/01/20 18:49:25;;;;;;;37.78;22.77;;;;;;;;;;6371336;22;20002;-84
2022/01/20 18:51:50;;;;;;;43.53;26.15;;;;;;;;;;6371154;22;20005;-84
2022/01/20 18:54:16;;;;;;;49.85;26.35;;;;;;;;;;6371048;22;19998;-86
2022/01/20 18:56:41;;;;;;;40.20;23.77;;;;;;;;;;6371087;22;20329;-87
2022/01/20 18:59:07;;;;;;;39.95;22.10;;;;;;;;;;6371365;22;20003;-85
2022/01/20 19:01:32;;;;;;;42.05;22.77;;;;;;;;;;6369931;22;20332;-88
2022/01/20 19:03:58;;;;;;;42.88;23.13;;;;;;;;;;6369347;22;20009;-86
2022/01/20 19:06:23;;;;;;;38.22;21.30;;;;;;;;;;6369177;22;20010;-86
2022/01/20 19:08:49;;;;;;;36.85;20.60;;;;;;;;;;6370608;22;20378;-85
2022/01/20 19:11:14;;;;;;;39.92;23.98;;;;;;;;;;6368850;22;20336;-86
2022/01/20 19:13:41;;;;;;;44.00;25.13;;;;;;;;;;6370989;22;20298;-88
2022/01/20 19:16:07;;;;;;;41.05;22.77;;;;;;;;;;6369582;22;20013;-88
2022/01/20 19:18:33;;;;;;;42.75;22.92;;;;;;;;;;6370859;22;20022;-84
2022/01/20 19:20:59;;;;;;;46.13;26.60;;;;;;;;;;6369459;22;20006;-84
2022/01/20 19:23:26;;;;;;;35.78;21.67;;;;;;;;;;6370693;22;20006;-85
2022/01/20 19:25:52;;;;;;;44.83;24.98;;;;;;;;;;6371128;22;20081;-86
2022/01/20 19:28:17;;;;;;;43.53;24.48;;;;;;;;;;6371021;22;20036;-85
2022/01/20 19:30:44;;;;;;;45.22;26.30;;;;;;;;;;6369581;22;20068;-85
2022/01/20 19:33:10;;;;;;;46.20;24.92;;;;;;;;;;6371586;22;20009;-86
2022/01/20 19:35:36;;;;;;;44.83;24.67;;;;;;;;;;6371349;22;20002;-84
2022/01/20 19:38:01;;;;;;;38.35;21.20;;;;;;;;;;6370680;22;19998;-86
2022/01/20 19:40:27;;;;;;;36.92;21.73;;;;;;;;;;6369321;22;20013;-89
2022/01/20 19:42:53;;;;;;;49.72;26.08;;;;;;;;;;6371203;22;20081;-87
2022/01/20 19:45:19;;;;;;;40.45;24.58;;;;;;;;;;6370946;22;19994;-86
2022/01/20 19:47:45;;;;;;;52.22;30.23;;;;;;;;;;6370002;22;20460;-88
2022/01/20 19:50:14;;;;;;;47.88;26.35;;;;;;;;;;6371240;22;20005;-88
2022/01/20 19:52:41;;;;;;;56.00;29.87;;;;;;;;;;6369909;22;20049;-86
2022/01/20 19:55:08;;;;;;;50.67;25.98;;;;;;;;;;6371503;22;20009;-87
2022/01/20 19:57:34;;;;;;;48.38;27.45;;;;;;;;;;6371164;22;20002;-88
2022/01/20 19:59:59;;;;;;;47.50;26.67;;;;;;;;;;6370806;22;20055;-86
2022/01/20 20:02:26;;;;;;;40.80;23.13;;;;;;;;;;6370935;22;20003;-86
2022/01/20 20:04:52;;;;;;;47.67;29.20;;;;;;;;;;6370898;22;20122;-88
2022/01/20 20:07:18;;;;;;;48.88;25.92;;;;;;;;;;6369350;22;20010;-86
2022/01/20 20:09:44;;;;;;;39.72;22.95;;;;;;;;;;6371313;22;20005;-86
2022/01/20 20:12:12;;;;;;;34.58;17.83;;;;;;;;;;6371696;22;20048;-87
2022/01/20 20:14:39;;;;;;;35.30;21.45;;;;;;;;;;6370115;22;20007;-89
2022/01/20 20:17:05;;;;;;;38.58;21.58;;;;;;;;;;6371072;22;20021;-86
2022/01/20 20:19:30;;;;;;;42.92;23.95;;;;;;;;;;6369177;22;20087;-87
2022/01/20 20:21:56;;;;;;;38.47;22.30;;;;;;;;;;6369412;22;20091;-89
2022/01/20 20:24:25;;;;;;;37.80;20.10;;;;;;;;;;6370765;22;19998;-86
2022/01/20 20:26:53;;;;;;;29.67;16.55;;;;;;;;;;6370612;22;20002;-86
2022/01/20 20:29:18;;;;;;;32.83;16.83;;;;;;;;;;6370904;22;20482;-86
2022/01/20 20:31:44;;;;;;;25.45;14.90;;;;;;;;;;6369370;22;19995;-86
2022/01/20 20:34:10;;;;;;;24.30;13.48;;;;;;;;;;6368924;22;20006;-86
2022/01/20 20:36:37;;;;;;;14.48;8.30;;;;;;;;;;6370750;22;20006;-87
2022/01/20 20:39:07;;;;;;;16.63;10.10;;;;;;;;;;6370839;22;20002;-85
2022/01/20 20:41:34;;;;;;;;;;;;;;;;;;6369926;22;20055;-85
2022/01/20 20:43:59;;;;;;;9.80;4.28;;;;;;;;;;6370539;22;19902;-86
2022/01/20 20:46:25;;;;;;;6.55;4.00;;;;;;;;;;6370640;22;20302;-86
2022/01/20 20:48:50;;;;;;;2.92;1.90;;;;;;;;;;6370685;22;19999;-86
2022/01/20 20:51:15;;;;;;;26.45;12.82;;;;;;;;;;6372439;22;20384;-86
2022/01/20 20:53:41;;;;;;;3.85;2.40;;;;;;;;;;6372401;22;20452;-86
2022/01/20 20:56:06;;;;;;;6.18;3.00;;;;;;;;;;6372320;22;20417;-86
2022/01/20 20:58:32;;;;;;;4.35;2.67;;;;;;;;;;6372272;22;20006;-86
2022/01/20 21:00:57;;;;;;;10.55;5.13;;;;;;;;;;6372532;22;20002;-86
2022/01/20 21:03:23;;;;;;;4.90;3.08;;;;;;;;;;6372121;22;20010;-85
2022/01/20 21:05:48;;;;;;;5.88;3.60;;;;;;;;;;6372292;22;20009;-85
2022/01/20 21:08:14;;;;;;;5.47;3.50;;;;;;;;;;6372610;22;20002;-86
2022/01/20 21:10:41;;;;;;;5.10;2.90;;;;;;;;;;6372211;22;19999;-87
2022/01/20 21:13:06;;;;;;;5.38;3.22;;;;;;;;;;6370752;22;20382;-88
2022/01/20 21:15:32;;;;;;;4.20;2.80;;;;;;;;;;6372380;22;20014;-85
2022/01/20 21:17:57;;;;;;;3.28;2.40;;;;;;;;;;6372005;22;20085;-86
2022/01/20 21:20:23;;;;;;;3.97;2.80;;;;;;;;;;6372278;22;20036;-85
2022/01/20 21:22:48;;;;;;;4.65;3.17;;;;;;;;;;6372113;22;19998;-84
2022/01/20 21:25:14;;;;;;;3.50;2.30;;;;;;;;;;6372202;22;20006;-85
2022/01/20 21:27:40;;;;;;;2.22;1.77;;;;;;;;;;6372530;22;20473;-85
2022/01/20 21:30:07;;;;;;;2.47;2.20;;;;;;;;;;6371992;22;20537;-85
2022/01/20 21:32:34;;;;;;;2.85;2.35;;;;;;;;;;6372175;22;20002;-88
2022/01/20 21:35:00;;;;;;;3.33;2.40;;;;;;;;;;6372471;22;20426;-91
2022/01/20 21:37:26;;;;;;;3.30;3.00;;;;;;;;;;6370928;22;20011;-87
2022/01/20 21:39:52;;;;;;;4.75;2.70;;;;;;;;;;6370980;22;20025;-90
2022/01/20 21:42:18;;;;;;;6.28;3.55;;;;;;;;;;6372465;22;20033;-86
2022/01/20 21:44:43;;;;;;;4.47;2.83;;;;;;;;;;6372220;22;20317;-89
2022/01/20 21:47:09;;;;;;;5.75;3.60;;;;;;;;;;6372136;22;20006;-91
2022/01/20 21:49:35;;;;;;;3.88;2.47;;;;;;;;;;6372330;22;19998;-88
2022/01/20 21:52:00;;;;;;;3.83;2.35;;;;;;;;;;6372314;22;20354;-89
2022/01/20 21:54:25;;;;;;;3.05;2.65;;;;;;;;;;6372021;22;20013;-87
2022/01/20 21:56:52;;;;;;;3.38;2.45;;;;;;;;;;6370455;22;20079;-90
2022/01/20 21:59:18;;;;;;;3.92;1.98;;;;;;;;;;6370509;22;20009;-88
2022/01/20 22:01:43;;;;;;;2.58;2.38;;;;;;;;;;6371709;22;20002;-89
2022/01/20 22:04:09;;;;;;;2.42;2.22;;;;;;;;;;6371821;22;20016;-88
2022/01/20 22:06:34;;;;;;;2.22;2.00;;;;;;;;;;6371795;22;20073;-86
2022/01/20 22:09:00;;;;;;;2.83;2.03;;;;;;;;;;6371932;22;20481;-87
2022/01/20 22:11:26;;;;;;;3.03;2.00;;;;;;;;;;6370494;22;20030;-87
2022/01/20 22:13:52;;;;;;;2.17;1.77;;;;;;;;;;6370199;22;20002;-88
2022/01/20 22:16:19;;;;;;;2.50;1.90;;;;;;;;;;6371890;22;19998;-86
2022/01/20 22:18:45;;;;;;;2.50;2.30;;;;;;;;;;6371532;22;20478;-86
2022/01/20 22:21:12;;;;;;;2.15;1.67;;;;;;;;;;6371976;22;20033;-89
2022/01/20 22:23:40;;;;;;;2.55;1.83;;;;;;;;;;6371655;22;20425;-86
2022/01/20 22:26:08;;;;;;;3.10;2.00;;;;;;;;;;6371797;22;20007;-87
2022/01/20 22:28:35;;;;;;;2.25;1.70;;;;;;;;;;6372121;22;20030;-85
2022/01/20 22:31:01;;;;;;;5.20;2.08;;;;;;;;;;6372127;22;20081;-86
2022/01/20 22:33:27;;;;;;;1.30;1.20;;;;;;;;;;6372404;22;20372;-88
2022/01/20 22:35:54;;;;;;;2.00;1.50;;;;;;;;;;6372363;22;20310;-87
2022/01/20 22:38:20;;;;;;;2.85;1.80;;;;;;;;;;6372033;22;20009;-88
2022/01/20 22:40:46;;;;;;;2.65;2.45;;;;;;;;;;6370003;22;20011;-86
2022/01/20 22:43:14;;;;;;;4.32;1.48;;;;;;;;;;6371598;22;20432;-87
2022/01/20 22:45:43;;;;;;;1.85;1.70;;;;;;;;;;6372035;22;20002;-86
2022/01/20 22:48:09;;;;;;;1.73;1.05;;;;;;;;;;6370105;22;20024;-87
2022/01/20 22:50:38;;;;;;;0.85;0.82;;;;;;;;;;6371562;22;20012;-86
2022/01/20 22:53:06;;;;;;;1.87;1.10;;;;;;;;;;6371118;22;20005;-88
2022/01/20 22:55:31;;;;;;;1.08;0.98;;;;;;;;;;6371403;22;20708;-86
2022/01/20 22:57:58;;;;;;;1.48;1.10;;;;;;;;;;6369890;22;20038;-85
2022/01/20 23:00:27;;;;;;;1.80;1.10;;;;;;;;;;6369277;22;20030;-88
2022/01/20 23:02:53;;;;;;;1.05;0.98;;;;;;;;;;6371025;22;20424;-90
2022/01/20 23:05:21;;;;;;;2.00;1.30;;;;;;;;;;6370562;22;20077;-86
2022/01/20 23:07:47;;;;;;;1.00;0.90;;;;;;;;;;6371106;22;20006;-85
2022/01/20 23:10:15;;;;;;;1.20;1.10;;;;;;;;;;6369488;22;20026;-87
2022/01/20 23:12:42;;;;;;;1.27;1.05;;;;;;;;;;6370703;22;20033;-87
2022/01/20 23:15:14;;;;;;;1.30;1.05;;;;;;;;;;6371129;22;20007;-86
2022/01/20 23:18:31;;;;;;;1.95;1.40;;;;;;;;;;6370748;22;20014;-85
2022/01/20 23:20:53;;;;;;;3.17;1.10;;;;;;;;;;6367685;22;20112;-87
2022/01/20 23:23:46;;;;;;;1.35;0.95;;;;;;;;;;6371339;22;20027;-87
2022/01/20 23:26:15;;;;;;;4.60;1.13;;;;;;;;;;6370919;22;20009;-84
2022/01/20 23:28:42;;;;;;;2.45;1.30;;;;;;;;;;6370735;22;20313;-87
2022/01/20 23:31:11;;;;;;;2.42;1.60;;;;;;;;;;6371115;22;20290;-87
2022/01/20 23:33:37;;;;;;;1.50;1.30;;;;;;;;;;6369997;22;20029;-87
2022/01/20 23:36:03;;;;;;;1.85;1.35;;;;;;;;;;6368977;22;20014;-85
2022/01/20 23:38:29;;;;;;;2.42;1.52;;;;;;;;;;6370620;22;20429;-85
2022/01/20 23:43:56;;;;;;;1.40;1.05;;;;;;;;;;6378707;22;20002;-85
2022/01/20 23:49:09;;;;;;;2.20;1.30;;;;;;;;;;6371033;22;20013;-87
2022/01/20 23:51:35;;;;;;;1.50;1.00;;;;;;;;;;6371118;22;20386;-88
2022/01/20 23:54:00;;;;;;;1.92;0.98;;;;;;;;;;6369201;22;20060;-84
2022/01/20 23:56:27;;;;;;;1.58;1.15;;;;;;;;;;6370500;22;20333;-86
2022/01/20 23:58:54;;;;;;;1.20;1.00;;;;;;;;;;6370732;22;20003;-87
